sensor_id;sensor_type;location;lat;lon;timestamp;P1;durP1;ratioP1;P2;durP2;ratioP2
6053;SDS011;3055;50.886;14.814;2022-11-04T00:01:25;23.90;;;16.50;;
6053;SDS011;3055;50.886;14.814;2022-11-04T00:03:53;21.23;;;16.77;;
6053;SDS011;3055;50.886;14.814;2022-11-04T00:06:21;25.23;;;16.17;;
6053;SDS011;3055;50.886;14.814;2022-11-04T00:08:48;21.77;;;15.90;;
6053;SDS011;3055;50.886;14.814;2022-11-04T00:11:15;22.57;;;16.10;;
6053;SDS011;3055;50.886;14.814;2022-11-04T00:14:00;21.83;;;17.03;;
6053;SDS011;3055;50.886;14.814;2022-11-04T00:16:28;24.03;;;17.40;;
6053;SDS011;3055;50.886;14.814;2022-11-04T00:19:12;23.50;;;16.17;;
6053;SDS011;3055;50.886;14.814;2022-11-04T00:21:41;25.70;;;18.50;;
6053;SDS011;3055;50.886;14.814;2022-11-04T00:24:25;20.53;;;16.27;;
6053;SDS011;3055;50.886;14.814;2022-11-04T00:27:09;21.33;;;16.00;;
6053;SDS011;3055;50.886;14.814;2022-11-04T00:29:54;19.40;;;16.80;;
6053;SDS011;3055;50.886;14.814;2022-11-04T00:32:21;24.60;;;16.93;;
6053;SDS011;3055;50.886;14.814;2022-11-04T00:35:06;23.47;;;17.77;;
6053;SDS011;3055;50.886;14.814;2022-11-04T00:37:39;22.23;;;18.03;;
6053;SDS011;3055;50.886;14.814;2022-11-04T00:40:07;19.83;;;17.00;;
6053;SDS011;3055;50.886;14.814;2022-11-04T00:42:36;24.57;;;17.83;;
6053;SDS011;3055;50.886;14.814;2022-11-04T00:45:03;21.87;;;17.70;;
6053;SDS011;3055;50.886;14.814;2022-11-04T00:47:31;26.17;;;18.30;;
6053;SDS011;3055;50.886;14.814;2022-11-04T00:49:58;26.10;;;18.53;;
6053;SDS011;3055;50.886;14.814;2022-11-04T00:52:25;26.73;;;18.23;;
6053;SDS011;3055;50.886;14.814;2022-11-04T00:54:53;22.97;;;17.50;;
6053;SDS011;3055;50.886;14.814;2022-11-04T00:57:20;23.23;;;17.20;;
6053;SDS011;3055;50.886;14.814;2022-11-04T00:59:47;25.10;;;17.77;;
6053;SDS011;3055;50.886;14.814;2022-11-04T01:02:14;24.47;;;17.43;;
6053;SDS011;3055;50.886;14.814;2022-11-04T01:04:41;24.53;;;19.00;;
6053;SDS011;3055;50.886;14.814;2022-11-04T01:07:07;28.73;;;19.37;;
6053;SDS011;3055;50.886;14.814;2022-11-04T01:09:34;27.30;;;20.60;;
6053;SDS011;3055;50.886;14.814;2022-11-04T01:12:03;25.70;;;17.50;;
6053;SDS011;3055;50.886;14.814;2022-11-04T01:14:30;27.90;;;19.03;;
6053;SDS011;3055;50.886;14.814;2022-11-04T01:16:57;22.53;;;16.97;;
6053;SDS011;3055;50.886;14.814;2022-11-04T01:19:24;25.27;;;18.30;;
6053;SDS011;3055;50.886;14.814;2022-11-04T01:21:51;26.93;;;19.70;;
6053;SDS011;3055;50.886;14.814;2022-11-04T01:24:18;25.00;;;17.70;;
6053;SDS011;3055;50.886;14.814;2022-11-04T01:26:44;29.53;;;17.97;;
6053;SDS011;3055;50.886;14.814;2022-11-04T01:29:13;25.30;;;17.53;;
6053;SDS011;3055;50.886;14.814;2022-11-04T01:31:40;22.03;;;17.27;;
6053;SDS011;3055;50.886;14.814;2022-11-04T01:34:07;22.70;;;17.13;;
6053;SDS011;3055;50.886;14.814;2022-11-04T01:36:35;26.37;;;18.53;;
6053;SDS011;3055;50.886;14.814;2022-11-04T01:39:02;22.17;;;18.37;;
6053;SDS011;3055;50.886;14.814;2022-11-04T01:41:30;22.30;;;17.23;;
6053;SDS011;3055;50.886;14.814;2022-11-04T01:43:59;23.40;;;18.50;;
6053;SDS011;3055;50.886;14.814;2022-11-04T01:46:30;25.27;;;19.07;;
6053;SDS011;3055;50.886;14.814;2022-11-04T01:49:03;30.90;;;20.80;;
6053;SDS011;3055;50.886;14.814;2022-11-04T01:51:44;28.60;;;19.23;;
6053;SDS011;3055;50.886;14.814;2022-11-04T01:54:13;26.03;;;18.23;;
6053;SDS011;3055;50.886;14.814;2022-11-04T01:56:41;22.63;;;17.60;;
6053;SDS011;3055;50.886;14.814;2022-11-04T01:59:11;26.77;;;18.80;;
6053;SDS011;3055;50.886;14.814;2022-11-04T02:01:45;25.93;;;19.30;;
6053;SDS011;3055;50.886;14.814;2022-11-04T02:04:12;23.27;;;18.03;;
6053;SDS011;3055;50.886;14.814;2022-11-04T02:06:52;24.30;;;17.53;;
6053;SDS011;3055;50.886;14.814;2022-11-04T02:09:21;25.13;;;17.80;;
6053;SDS011;3055;50.886;14.814;2022-11-04T02:11:50;25.93;;;16.77;;
6053;SDS011;3055;50.886;14.814;2022-11-04T02:14:34;20.73;;;16.77;;
6053;SDS011;3055;50.886;14.814;2022-11-04T02:17:07;20.73;;;15.57;;
6053;SDS011;3055;50.886;14.814;2022-11-04T02:19:54;22.30;;;18.17;;
6053;SDS011;3055;50.886;14.814;2022-11-04T02:22:50;22.77;;;17.03;;
6053;SDS011;3055;50.886;14.814;2022-11-04T02:25:55;21.40;;;16.53;;
6053;SDS011;3055;50.886;14.814;2022-11-04T02:31:47;23.90;;;17.13;;
6053;SDS011;3055;50.886;14.814;2022-11-04T02:34:20;21.33;;;15.83;;
6053;SDS011;3055;50.886;14.814;2022-11-04T02:36:55;21.30;;;16.20;;
6053;SDS011;3055;50.886;14.814;2022-11-04T02:39:33;22.23;;;16.57;;
6053;SDS011;3055;50.886;14.814;2022-11-04T02:42:08;24.60;;;17.60;;
6053;SDS011;3055;50.886;14.814;2022-11-04T02:44:42;21.17;;;16.67;;
6053;SDS011;3055;50.886;14.814;2022-11-04T02:47:14;18.57;;;15.17;;
6053;SDS011;3055;50.886;14.814;2022-11-04T02:49:46;22.00;;;16.63;;
6053;SDS011;3055;50.886;14.814;2022-11-04T02:52:18;22.43;;;16.43;;
6053;SDS011;3055;50.886;14.814;2022-11-04T02:54:53;19.13;;;15.93;;
6053;SDS011;3055;50.886;14.814;2022-11-04T02:57:27;18.07;;;15.83;;
6053;SDS011;3055;50.886;14.814;2022-11-04T02:59:59;25.23;;;15.90;;
6053;SDS011;3055;50.886;14.814;2022-11-04T03:02:29;19.63;;;15.23;;
6053;SDS011;3055;50.886;14.814;2022-11-04T03:05:00;21.60;;;15.67;;
6053;SDS011;3055;50.886;14.814;2022-11-04T03:07:30;18.30;;;15.43;;
6053;SDS011;3055;50.886;14.814;2022-11-04T03:10:03;20.57;;;14.67;;
6053;SDS011;3055;50.886;14.814;2022-11-04T03:12:34;20.60;;;15.70;;
6053;SDS011;3055;50.886;14.814;2022-11-04T03:15:08;21.50;;;14.97;;
6053;SDS011;3055;50.886;14.814;2022-11-04T03:17:40;19.67;;;15.83;;
6053;SDS011;3055;50.886;14.814;2022-11-04T03:20:14;21.00;;;15.27;;
6053;SDS011;3055;50.886;14.814;2022-11-04T03:22:45;20.23;;;15.57;;
6053;SDS011;3055;50.886;14.814;2022-11-04T03:25:12;18.37;;;15.40;;
6053;SDS011;3055;50.886;14.814;2022-11-04T03:27:42;21.37;;;17.10;;
6053;SDS011;3055;50.886;14.814;2022-11-04T03:30:18;21.43;;;15.37;;
6053;SDS011;3055;50.886;14.814;2022-11-04T03:32:50;24.07;;;17.83;;
6053;SDS011;3055;50.886;14.814;2022-11-04T03:35:24;23.50;;;17.03;;
6053;SDS011;3055;50.886;14.814;2022-11-04T03:37:52;23.27;;;16.20;;
6053;SDS011;3055;50.886;14.814;2022-11-04T03:40:19;28.03;;;19.30;;
6053;SDS011;3055;50.886;14.814;2022-11-04T03:42:47;24.13;;;17.63;;
6053;SDS011;3055;50.886;14.814;2022-11-04T03:45:22;27.93;;;18.50;;
6053;SDS011;3055;50.886;14.814;2022-11-04T03:47:49;29.57;;;18.67;;
6053;SDS011;3055;50.886;14.814;2022-11-04T03:50:18;26.67;;;19.10;;
6053;SDS011;3055;50.886;14.814;2022-11-04T03:52:51;27.13;;;18.43;;
6053;SDS011;3055;50.886;14.814;2022-11-04T03:55:18;25.93;;;18.30;;
6053;SDS011;3055;50.886;14.814;2022-11-04T03:57:47;24.27;;;18.20;;
6053;SDS011;3055;50.886;14.814;2022-11-04T04:00:18;28.40;;;19.67;;
6053;SDS011;3055;50.886;14.814;2022-11-04T04:02:51;24.60;;;19.43;;
6053;SDS011;3055;50.886;14.814;2022-11-04T04:05:25;25.50;;;19.37;;
6053;SDS011;3055;50.886;14.814;2022-11-04T04:07:56;26.30;;;19.10;;
6053;SDS011;3055;50.886;14.814;2022-11-04T04:10:35;30.53;;;20.60;;
6053;SDS011;3055;50.886;14.814;2022-11-04T04:13:07;26.80;;;20.33;;
6053;SDS011;3055;50.886;14.814;2022-11-04T04:15:46;25.03;;;19.10;;
6053;SDS011;3055;50.886;14.814;2022-11-04T04:18:18;25.37;;;19.77;;
6053;SDS011;3055;50.886;14.814;2022-11-04T04:20:51;24.83;;;17.80;;
6053;SDS011;3055;50.886;14.814;2022-11-04T04:23:22;25.73;;;19.40;;
6053;SDS011;3055;50.886;14.814;2022-11-04T04:26:09;24.90;;;19.97;;
6053;SDS011;3055;50.886;14.814;2022-11-04T04:28:57;31.00;;;19.70;;
6053;SDS011;3055;50.886;14.814;2022-11-04T04:31:27;24.50;;;19.27;;
6053;SDS011;3055;50.886;14.814;2022-11-04T04:34:14;25.70;;;19.93;;
6053;SDS011;3055;50.886;14.814;2022-11-04T04:36:44;26.53;;;20.53;;
6053;SDS011;3055;50.886;14.814;2022-11-04T04:39:16;26.13;;;19.73;;
6053;SDS011;3055;50.886;14.814;2022-11-04T04:42:03;30.17;;;20.30;;
6053;SDS011;3055;50.886;14.814;2022-11-04T04:44:48;28.67;;;20.00;;
6053;SDS011;3055;50.886;14.814;2022-11-04T04:47:25;28.80;;;20.83;;
6053;SDS011;3055;50.886;14.814;2022-11-04T04:49:57;28.73;;;20.23;;
6053;SDS011;3055;50.886;14.814;2022-11-04T04:52:25;28.20;;;20.10;;
6053;SDS011;3055;50.886;14.814;2022-11-04T04:54:53;28.47;;;20.50;;
6053;SDS011;3055;50.886;14.814;2022-11-04T04:57:20;22.80;;;18.50;;
6053;SDS011;3055;50.886;14.814;2022-11-04T04:59:47;28.10;;;20.00;;
6053;SDS011;3055;50.886;14.814;2022-11-04T05:02:14;32.27;;;20.13;;
6053;SDS011;3055;50.886;14.814;2022-11-04T05:04:41;29.37;;;19.83;;
6053;SDS011;3055;50.886;14.814;2022-11-04T05:07:09;27.63;;;20.60;;
6053;SDS011;3055;50.886;14.814;2022-11-04T05:09:36;25.97;;;19.10;;
6053;SDS011;3055;50.886;14.814;2022-11-04T05:12:03;28.67;;;21.27;;
6053;SDS011;3055;50.886;14.814;2022-11-04T05:14:30;27.97;;;20.90;;
6053;SDS011;3055;50.886;14.814;2022-11-04T05:16:57;29.30;;;21.73;;
6053;SDS011;3055;50.886;14.814;2022-11-04T05:19:24;28.80;;;21.80;;
6053;SDS011;3055;50.886;14.814;2022-11-04T05:21:51;29.77;;;21.17;;
6053;SDS011;3055;50.886;14.814;2022-11-04T05:24:19;27.20;;;21.43;;
6053;SDS011;3055;50.886;14.814;2022-11-04T05:26:46;30.47;;;22.80;;
6053;SDS011;3055;50.886;14.814;2022-11-04T05:29:13;27.97;;;21.40;;
6053;SDS011;3055;50.886;14.814;2022-11-04T05:31:40;28.23;;;21.47;;
6053;SDS011;3055;50.886;14.814;2022-11-04T05:34:08;31.87;;;21.27;;
6053;SDS011;3055;50.886;14.814;2022-11-04T05:36:35;29.67;;;22.00;;
6053;SDS011;3055;50.886;14.814;2022-11-04T05:39:02;30.07;;;21.63;;
6053;SDS011;3055;50.886;14.814;2022-11-04T05:41:31;28.73;;;21.93;;
6053;SDS011;3055;50.886;14.814;2022-11-04T05:43:59;30.53;;;22.40;;
6053;SDS011;3055;50.886;14.814;2022-11-04T05:46:27;27.23;;;21.00;;
6053;SDS011;3055;50.886;14.814;2022-11-04T05:48:55;27.30;;;21.60;;
6053;SDS011;3055;50.886;14.814;2022-11-04T05:51:23;31.20;;;23.07;;
6053;SDS011;3055;50.886;14.814;2022-11-04T05:53:51;33.03;;;23.23;;
6053;SDS011;3055;50.886;14.814;2022-11-04T05:56:18;29.07;;;22.73;;
6053;SDS011;3055;50.886;14.814;2022-11-04T05:58:46;30.93;;;22.73;;
6053;SDS011;3055;50.886;14.814;2022-11-04T06:01:22;32.17;;;23.00;;
6053;SDS011;3055;50.886;14.814;2022-11-04T06:03:55;30.77;;;23.77;;
6053;SDS011;3055;50.886;14.814;2022-11-04T06:06:24;28.10;;;21.80;;
6053;SDS011;3055;50.886;14.814;2022-11-04T06:08:52;33.97;;;23.83;;
6053;SDS011;3055;50.886;14.814;2022-11-04T06:11:19;32.83;;;23.80;;
6053;SDS011;3055;50.886;14.814;2022-11-04T06:13:49;32.70;;;22.57;;
6053;SDS011;3055;50.886;14.814;2022-11-04T06:16:16;32.37;;;22.97;;
6053;SDS011;3055;50.886;14.814;2022-11-04T06:18:43;33.63;;;24.10;;
6053;SDS011;3055;50.886;14.814;2022-11-04T06:21:18;27.83;;;21.47;;
6053;SDS011;3055;50.886;14.814;2022-11-04T06:23:50;29.73;;;22.20;;
6053;SDS011;3055;50.886;14.814;2022-11-04T06:26:17;30.97;;;21.60;;
6053;SDS011;3055;50.886;14.814;2022-11-04T06:28:45;33.60;;;23.20;;
6053;SDS011;3055;50.886;14.814;2022-11-04T06:31:14;32.00;;;24.77;;
6053;SDS011;3055;50.886;14.814;2022-11-04T06:33:42;36.93;;;25.53;;
6053;SDS011;3055;50.886;14.814;2022-11-04T06:36:10;32.00;;;23.97;;
6053;SDS011;3055;50.886;14.814;2022-11-04T06:38:38;30.53;;;24.37;;
6053;SDS011;3055;50.886;14.814;2022-11-04T06:41:06;40.90;;;30.07;;
6053;SDS011;3055;50.886;14.814;2022-11-04T06:43:36;35.17;;;25.17;;
6053;SDS011;3055;50.886;14.814;2022-11-04T06:46:02;33.60;;;25.00;;
6053;SDS011;3055;50.886;14.814;2022-11-04T06:48:31;30.53;;;23.83;;
6053;SDS011;3055;50.886;14.814;2022-11-04T06:50:58;33.20;;;23.33;;
6053;SDS011;3055;50.886;14.814;2022-11-04T06:53:27;31.87;;;24.63;;
6053;SDS011;3055;50.886;14.814;2022-11-04T06:55:59;33.23;;;25.60;;
6053;SDS011;3055;50.886;14.814;2022-11-04T06:58:30;30.90;;;23.53;;
6053;SDS011;3055;50.886;14.814;2022-11-04T07:00:57;36.23;;;25.33;;
6053;SDS011;3055;50.886;14.814;2022-11-04T07:03:23;35.13;;;24.97;;
6053;SDS011;3055;50.886;14.814;2022-11-04T07:05:52;34.87;;;25.17;;
6053;SDS011;3055;50.886;14.814;2022-11-04T07:08:19;34.50;;;25.00;;
6053;SDS011;3055;50.886;14.814;2022-11-04T07:10:46;34.60;;;24.40;;
6053;SDS011;3055;50.886;14.814;2022-11-04T07:13:13;29.97;;;24.20;;
6053;SDS011;3055;50.886;14.814;2022-11-04T07:15:40;31.07;;;24.83;;
6053;SDS011;3055;50.886;14.814;2022-11-04T07:18:07;36.23;;;25.67;;
6053;SDS011;3055;50.886;14.814;2022-11-04T07:20:35;32.57;;;23.87;;
6053;SDS011;3055;50.886;14.814;2022-11-04T07:23:03;35.77;;;24.83;;
6053;SDS011;3055;50.886;14.814;2022-11-04T07:25:30;34.00;;;26.67;;
6053;SDS011;3055;50.886;14.814;2022-11-04T07:27:57;33.90;;;24.83;;
6053;SDS011;3055;50.886;14.814;2022-11-04T07:30:25;33.30;;;24.50;;
6053;SDS011;3055;50.886;14.814;2022-11-04T07:32:52;34.77;;;24.73;;
6053;SDS011;3055;50.886;14.814;2022-11-04T07:35:18;35.63;;;24.03;;
6053;SDS011;3055;50.886;14.814;2022-11-04T07:37:45;33.73;;;24.50;;
6053;SDS011;3055;50.886;14.814;2022-11-04T07:40:14;30.57;;;22.77;;
6053;SDS011;3055;50.886;14.814;2022-11-04T07:42:41;27.97;;;21.73;;
6053;SDS011;3055;50.886;14.814;2022-11-04T07:45:08;29.77;;;23.43;;
6053;SDS011;3055;50.886;14.814;2022-11-04T07:47:35;28.57;;;22.27;;
6053;SDS011;3055;50.886;14.814;2022-11-04T07:50:02;31.50;;;22.77;;
6053;SDS011;3055;50.886;14.814;2022-11-04T07:52:30;31.10;;;22.07;;
6053;SDS011;3055;50.886;14.814;2022-11-04T07:54:57;28.13;;;21.87;;
6053;SDS011;3055;50.886;14.814;2022-11-04T07:57:25;32.13;;;23.30;;
6053;SDS011;3055;50.886;14.814;2022-11-04T07:59:53;29.53;;;22.60;;
6053;SDS011;3055;50.886;14.814;2022-11-04T08:02:20;29.77;;;21.17;;
6053;SDS011;3055;50.886;14.814;2022-11-04T08:04:47;26.83;;;20.87;;
6053;SDS011;3055;50.886;14.814;2022-11-04T08:07:15;26.97;;;20.87;;
6053;SDS011;3055;50.886;14.814;2022-11-04T08:09:42;27.07;;;22.07;;
6053;SDS011;3055;50.886;14.814;2022-11-04T08:12:08;30.63;;;21.43;;
6053;SDS011;3055;50.886;14.814;2022-11-04T08:14:37;30.13;;;20.80;;
6053;SDS011;3055;50.886;14.814;2022-11-04T08:17:05;25.47;;;19.60;;
6053;SDS011;3055;50.886;14.814;2022-11-04T08:19:32;29.20;;;21.53;;
6053;SDS011;3055;50.886;14.814;2022-11-04T08:21:58;24.80;;;19.93;;
6053;SDS011;3055;50.886;14.814;2022-11-04T08:24:25;26.77;;;21.20;;
6053;SDS011;3055;50.886;14.814;2022-11-04T08:26:52;27.63;;;21.30;;
6053;SDS011;3055;50.886;14.814;2022-11-04T08:29:19;24.73;;;21.30;;
6053;SDS011;3055;50.886;14.814;2022-11-04T08:31:47;26.70;;;19.37;;
6053;SDS011;3055;50.886;14.814;2022-11-04T08:34:14;26.00;;;20.37;;
6053;SDS011;3055;50.886;14.814;2022-11-04T08:36:42;21.40;;;18.20;;
6053;SDS011;3055;50.886;14.814;2022-11-04T08:39:10;21.60;;;18.50;;
6053;SDS011;3055;50.886;14.814;2022-11-04T08:41:38;21.50;;;18.40;;
6053;SDS011;3055;50.886;14.814;2022-11-04T08:44:09;23.07;;;18.47;;
6053;SDS011;3055;50.886;14.814;2022-11-04T08:46:37;21.90;;;17.57;;
6053;SDS011;3055;50.886;14.814;2022-11-04T08:49:07;20.33;;;17.07;;
6053;SDS011;3055;50.886;14.814;2022-11-04T08:51:34;20.90;;;18.33;;
6053;SDS011;3055;50.886;14.814;2022-11-04T08:54:04;21.93;;;17.37;;
6053;SDS011;3055;50.886;14.814;2022-11-04T08:56:32;19.87;;;16.47;;
6053;SDS011;3055;50.886;14.814;2022-11-04T08:59:01;21.00;;;17.57;;
6053;SDS011;3055;50.886;14.814;2022-11-04T09:01:29;20.90;;;16.93;;
6053;SDS011;3055;50.886;14.814;2022-11-04T09:03:58;18.23;;;15.83;;
6053;SDS011;3055;50.886;14.814;2022-11-04T09:06:28;20.20;;;17.03;;
6053;SDS011;3055;50.886;14.814;2022-11-04T09:08:57;19.50;;;15.23;;
6053;SDS011;3055;50.886;14.814;2022-11-04T09:11:28;18.23;;;16.23;;
6053;SDS011;3055;50.886;14.814;2022-11-04T09:13:57;19.70;;;15.40;;
6053;SDS011;3055;50.886;14.814;2022-11-04T09:16:25;17.33;;;14.93;;
6053;SDS011;3055;50.886;14.814;2022-11-04T09:18:52;17.97;;;15.40;;
6053;SDS011;3055;50.886;14.814;2022-11-04T09:21:20;19.33;;;15.87;;
6053;SDS011;3055;50.886;14.814;2022-11-04T09:23:49;19.40;;;15.13;;
6053;SDS011;3055;50.886;14.814;2022-11-04T09:26:16;19.10;;;15.80;;
6053;SDS011;3055;50.886;14.814;2022-11-04T09:28:43;19.70;;;16.73;;
6053;SDS011;3055;50.886;14.814;2022-11-04T09:31:12;22.70;;;17.50;;
6053;SDS011;3055;50.886;14.814;2022-11-04T09:33:40;23.27;;;18.17;;
6053;SDS011;3055;50.886;14.814;2022-11-04T09:36:07;22.30;;;18.30;;
6053;SDS011;3055;50.886;14.814;2022-11-04T09:38:36;22.00;;;17.07;;
6053;SDS011;3055;50.886;14.814;2022-11-04T09:41:10;20.93;;;17.80;;
6053;SDS011;3055;50.886;14.814;2022-11-04T09:43:50;21.90;;;16.20;;
6053;SDS011;3055;50.886;14.814;2022-11-04T09:46:23;17.93;;;15.20;;
6053;SDS011;3055;50.886;14.814;2022-11-04T09:48:50;20.77;;;16.23;;
6053;SDS011;3055;50.886;14.814;2022-11-04T09:51:21;19.90;;;15.80;;
6053;SDS011;3055;50.886;14.814;2022-11-04T09:53:52;24.40;;;16.13;;
6053;SDS011;3055;50.886;14.814;2022-11-04T09:56:27;18.80;;;14.80;;
6053;SDS011;3055;50.886;14.814;2022-11-04T09:58:57;19.00;;;15.20;;
6053;SDS011;3055;50.886;14.814;2022-11-04T10:01:25;19.17;;;16.47;;
6053;SDS011;3055;50.886;14.814;2022-11-04T10:04:06;19.13;;;15.43;;
6053;SDS011;3055;50.886;14.814;2022-11-04T10:06:43;19.30;;;15.70;;
6053;SDS011;3055;50.886;14.814;2022-11-04T10:09:36;18.17;;;15.47;;
6053;SDS011;3055;50.886;14.814;2022-11-04T10:12:17;17.57;;;15.17;;
6053;SDS011;3055;50.886;14.814;2022-11-04T10:15:06;21.70;;;16.07;;
6053;SDS011;3055;50.886;14.814;2022-11-04T10:18:01;19.47;;;15.57;;
6053;SDS011;3055;50.886;14.814;2022-11-04T10:20:46;20.67;;;14.77;;
6053;SDS011;3055;50.886;14.814;2022-11-04T10:23:21;18.17;;;15.27;;
6053;SDS011;3055;50.886;14.814;2022-11-04T10:25:53;19.37;;;14.97;;
6053;SDS011;3055;50.886;14.814;2022-11-04T10:28:29;18.13;;;14.80;;
6053;SDS011;3055;50.886;14.814;2022-11-04T10:31:01;21.17;;;16.00;;
6053;SDS011;3055;50.886;14.814;2022-11-04T10:33:31;21.30;;;18.43;;
6053;SDS011;3055;50.886;14.814;2022-11-04T10:36:01;126.10;;;94.23;;
6053;SDS011;3055;50.886;14.814;2022-11-04T10:38:32;57.97;;;43.60;;
6053;SDS011;3055;50.886;14.814;2022-11-04T10:41:11;32.67;;;26.77;;
6053;SDS011;3055;50.886;14.814;2022-11-04T10:43:46;29.43;;;23.33;;
6053;SDS011;3055;50.886;14.814;2022-11-04T10:46:19;20.03;;;16.07;;
6053;SDS011;3055;50.886;14.814;2022-11-04T10:49:02;15.57;;;13.17;;
6053;SDS011;3055;50.886;14.814;2022-11-04T10:51:33;14.70;;;12.27;;
6053;SDS011;3055;50.886;14.814;2022-11-04T10:54:00;17.27;;;13.53;;
6053;SDS011;3055;50.886;14.814;2022-11-04T10:56:31;15.63;;;12.73;;
6053;SDS011;3055;50.886;14.814;2022-11-04T10:59:06;15.40;;;13.53;;
6053;SDS011;3055;50.886;14.814;2022-11-04T11:01:47;15.83;;;14.00;;
6053;SDS011;3055;50.886;14.814;2022-11-04T11:04:23;16.33;;;13.60;;
6053;SDS011;3055;50.886;14.814;2022-11-04T11:06:52;16.57;;;13.00;;
6053;SDS011;3055;50.886;14.814;2022-11-04T11:09:20;19.30;;;14.60;;
6053;SDS011;3055;50.886;14.814;2022-11-04T11:11:52;16.47;;;13.17;;
6053;SDS011;3055;50.886;14.814;2022-11-04T11:14:32;16.83;;;14.60;;
6053;SDS011;3055;50.886;14.814;2022-11-04T11:17:17;19.20;;;15.97;;
6053;SDS011;3055;50.886;14.814;2022-11-04T11:19:47;19.93;;;15.70;;
6053;SDS011;3055;50.886;14.814;2022-11-04T11:22:28;18.33;;;14.63;;
6053;SDS011;3055;50.886;14.814;2022-11-04T11:27:57;19.23;;;13.97;;
6053;SDS011;3055;50.886;14.814;2022-11-04T11:30:28;18.13;;;14.60;;
6053;SDS011;3055;50.886;14.814;2022-11-04T11:32:57;15.90;;;14.03;;
6053;SDS011;3055;50.886;14.814;2022-11-04T11:35:30;16.00;;;14.33;;
6053;SDS011;3055;50.886;14.814;2022-11-04T11:38:05;20.33;;;15.60;;
6053;SDS011;3055;50.886;14.814;2022-11-04T11:40:43;17.63;;;14.17;;
6053;SDS011;3055;50.886;14.814;2022-11-04T11:43:15;18.53;;;15.30;;
6053;SDS011;3055;50.886;14.814;2022-11-04T11:45:49;16.53;;;14.37;;
6053;SDS011;3055;50.886;14.814;2022-11-04T11:48:28;16.93;;;14.37;;
6053;SDS011;3055;50.886;14.814;2022-11-04T11:50:57;19.40;;;15.37;;
6053;SDS011;3055;50.886;14.814;2022-11-04T11:53:25;17.07;;;14.57;;
6053;SDS011;3055;50.886;14.814;2022-11-04T11:55:56;17.80;;;15.50;;
6053;SDS011;3055;50.886;14.814;2022-11-04T11:58:28;11.77;;;10.53;;
6053;SDS011;3055;50.886;14.814;2022-11-04T12:01:03;12.87;;;10.23;;
6053;SDS011;3055;50.886;14.814;2022-11-04T12:03:34;14.20;;;10.30;;
6053;SDS011;3055;50.886;14.814;2022-11-04T12:06:11;12.07;;;10.00;;
6053;SDS011;3055;50.886;14.814;2022-11-04T12:08:53;11.87;;;9.67;;
6053;SDS011;3055;50.886;14.814;2022-11-04T12:11:30;11.77;;;9.30;;
6053;SDS011;3055;50.886;14.814;2022-11-04T12:14:08;13.30;;;8.83;;
6053;SDS011;3055;50.886;14.814;2022-11-04T12:16:45;11.10;;;8.70;;
6053;SDS011;3055;50.886;14.814;2022-11-04T12:19:30;9.77;;;8.77;;
6053;SDS011;3055;50.886;14.814;2022-11-04T12:22:09;10.57;;;8.47;;
6053;SDS011;3055;50.886;14.814;2022-11-04T12:24:43;10.67;;;8.80;;
6053;SDS011;3055;50.886;14.814;2022-11-04T12:27:20;11.40;;;9.13;;
6053;SDS011;3055;50.886;14.814;2022-11-04T12:30:00;11.40;;;9.63;;
6053;SDS011;3055;50.886;14.814;2022-11-04T12:32:35;17.27;;;12.37;;
6053;SDS011;3055;50.886;14.814;2022-11-04T12:35:20;17.97;;;16.00;;
6053;SDS011;3055;50.886;14.814;2022-11-04T12:37:56;20.00;;;17.60;;
6053;SDS011;3055;50.886;14.814;2022-11-04T12:40:39;16.30;;;14.60;;
6053;SDS011;3055;50.886;14.814;2022-11-04T12:43:16;15.03;;;13.43;;
6053;SDS011;3055;50.886;14.814;2022-11-04T12:45:55;12.67;;;11.33;;
6053;SDS011;3055;50.886;14.814;2022-11-04T12:48:43;12.33;;;10.50;;
6053;SDS011;3055;50.886;14.814;2022-11-04T12:51:23;12.77;;;10.33;;
6053;SDS011;3055;50.886;14.814;2022-11-04T12:54:02;11.17;;;9.27;;
6053;SDS011;3055;50.886;14.814;2022-11-04T12:56:47;15.13;;;10.07;;
6053;SDS011;3055;50.886;14.814;2022-11-04T13:02:16;15.37;;;10.10;;
6053;SDS011;3055;50.886;14.814;2022-11-04T13:04:51;11.33;;;8.67;;
6053;SDS011;3055;50.886;14.814;2022-11-04T13:07:27;8.30;;;6.90;;
6053;SDS011;3055;50.886;14.814;2022-11-04T13:09:59;9.30;;;6.90;;
6053;SDS011;3055;50.886;14.814;2022-11-04T13:12:31;7.40;;;6.60;;
6053;SDS011;3055;50.886;14.814;2022-11-04T13:15:04;7.40;;;6.20;;
6053;SDS011;3055;50.886;14.814;2022-11-04T13:17:39;6.03;;;5.43;;
6053;SDS011;3055;50.886;14.814;2022-11-04T13:20:14;6.80;;;5.97;;
6053;SDS011;3055;50.886;14.814;2022-11-04T13:22:48;7.70;;;5.67;;
6053;SDS011;3055;50.886;14.814;2022-11-04T13:25:27;7.43;;;6.00;;
6053;SDS011;3055;50.886;14.814;2022-11-04T13:27:56;7.57;;;6.33;;
6053;SDS011;3055;50.886;14.814;2022-11-04T13:30:26;6.97;;;6.17;;
6053;SDS011;3055;50.886;14.814;2022-11-04T13:32:58;9.83;;;6.60;;
6053;SDS011;3055;50.886;14.814;2022-11-04T13:35:34;7.13;;;6.20;;
6053;SDS011;3055;50.886;14.814;2022-11-04T13:38:12;7.37;;;6.00;;
6053;SDS011;3055;50.886;14.814;2022-11-04T13:40:45;6.03;;;5.47;;
6053;SDS011;3055;50.886;14.814;2022-11-04T13:43:25;6.23;;;5.63;;
6053;SDS011;3055;50.886;14.814;2022-11-04T13:46:15;6.97;;;5.67;;
6053;SDS011;3055;50.886;14.814;2022-11-04T13:48:52;5.87;;;5.27;;
6053;SDS011;3055;50.886;14.814;2022-11-04T13:51:28;6.57;;;5.20;;
6053;SDS011;3055;50.886;14.814;2022-11-04T13:54:01;5.30;;;4.90;;
6053;SDS011;3055;50.886;14.814;2022-11-04T13:56:29;4.87;;;4.37;;
6053;SDS011;3055;50.886;14.814;2022-11-04T13:58:59;3.83;;;3.50;;
6053;SDS011;3055;50.886;14.814;2022-11-04T14:01:29;3.57;;;3.27;;
6053;SDS011;3055;50.886;14.814;2022-11-04T14:04:01;3.70;;;3.37;;
6053;SDS011;3055;50.886;14.814;2022-11-04T14:06:49;4.37;;;3.27;;
6053;SDS011;3055;50.886;14.814;2022-11-04T14:09:23;2.50;;;2.30;;
6053;SDS011;3055;50.886;14.814;2022-11-04T14:12:16;3.00;;;2.80;;
6053;SDS011;3055;50.886;14.814;2022-11-04T14:14:54;3.33;;;3.03;;
6053;SDS011;3055;50.886;14.814;2022-11-04T14:20:26;2.97;;;2.73;;
6053;SDS011;3055;50.886;14.814;2022-11-04T14:22:57;3.40;;;3.00;;
6053;SDS011;3055;50.886;14.814;2022-11-04T14:25:29;3.17;;;2.87;;
6053;SDS011;3055;50.886;14.814;2022-11-04T14:27:59;7.80;;;7.20;;
6053;SDS011;3055;50.886;14.814;2022-11-04T14:30:28;6.23;;;5.63;;
6053;SDS011;3055;50.886;14.814;2022-11-04T14:33:01;5.17;;;4.77;;
6053;SDS011;3055;50.886;14.814;2022-11-04T14:35:31;4.67;;;4.27;;
6053;SDS011;3055;50.886;14.814;2022-11-04T14:38:05;4.73;;;4.33;;
6053;SDS011;3055;50.886;14.814;2022-11-04T14:40:50;3.60;;;3.30;;
6053;SDS011;3055;50.886;14.814;2022-11-04T14:43:36;5.10;;;4.00;;
6053;SDS011;3055;50.886;14.814;2022-11-04T14:46:06;3.33;;;3.03;;
6053;SDS011;3055;50.886;14.814;2022-11-04T14:48:34;3.90;;;3.60;;
6053;SDS011;3055;50.886;14.814;2022-11-04T14:51:02;6.10;;;3.10;;
6053;SDS011;3055;50.886;14.814;2022-11-04T14:53:31;4.63;;;2.80;;
6053;SDS011;3055;50.886;14.814;2022-11-04T14:56:02;2.87;;;2.53;;
6053;SDS011;3055;50.886;14.814;2022-11-04T14:58:30;4.13;;;3.10;;
6053;SDS011;3055;50.886;14.814;2022-11-04T15:00:57;3.17;;;2.87;;
6053;SDS011;3055;50.886;14.814;2022-11-04T15:03:26;2.93;;;2.73;;
6053;SDS011;3055;50.886;14.814;2022-11-04T15:05:59;3.63;;;3.33;;
6053;SDS011;3055;50.886;14.814;2022-11-04T15:08:29;3.27;;;2.97;;
6053;SDS011;3055;50.886;14.814;2022-11-04T15:11:01;3.60;;;3.13;;
6053;SDS011;3055;50.886;14.814;2022-11-04T15:13:34;3.10;;;2.90;;
6053;SDS011;3055;50.886;14.814;2022-11-04T15:16:09;3.47;;;3.27;;
6053;SDS011;3055;50.886;14.814;2022-11-04T15:18:41;3.20;;;2.90;;